Yamato Maru — JD2408 — position and weather

sailwx.info

Track history (hours):
 
Tides and Currents Weather Stations Pressure Air Temp Water Temp Dewpoint Dewpoint Depression Visibility Wind Speed Wind Dir Waves Ship Positions

Yamato Maru

Last reported at 2018-Jun-23 05:33 UTC. Time now 2018-Jun-24 18:48 UTC.
Position N 35°35' E 139°57'.

Length 72 m; draft 4.9 m.

Type: Ship. MMSI: 431000080.

Date/timePositionNaut miles runAvg speedWind from/ knotsBaromVisibWave heightAir tempDewpointWater temp
2018-Jun-23 05:33N 35°35' E 139°57'213.1
2018-Jun-23 05:25N 35°35' E 139°54'410.3
2018-Jun-23 05:00N 35°37' E 139°50'0 0.0
2018-Jun-23 02:39N 35°37' E 139°50'0 0.2
2018-Jun-23 02:30N 35°37' E 139°50'2 0.3
2018-Jun-22 17:22N 35°35' E 139°52'5 0.4
2018-Jun-22 02:57N 35°32' E 139°57'1 0.8
2018-Jun-22 01:19N 35°32' E 139°55'612.5
2018-Jun-22 00:52N 35°36' E 139°50'1 0.5
2018-Jun-21 22:13N 35°37' E 139°50'2 3.4
2018-Jun-21 21:43N 35°36' E 139°51'10 0.7
2018-Jun-21 06:53N 35°30' E 140°01'2 1.4
2018-Jun-21 05:36N 35°31' E 139°59'210.0
2018-Jun-21 05:24N 35°32' E 139°57'812.7
2018-Jun-21 04:47N 35°37' E 139°49'1 0.2
2018-Jun-21 02:19N 35°37' E 139°50'11 0.5
2018-Jun-20 06:10N 35°31' E 140°00'0 1.3
2018-Jun-20 06:00N 35°31' E 139°60'4 6.4
2018-Jun-20 05:25N 35°33' E 139°56'510.9
2018-Jun-20 04:58N 35°35' E 139°51'2 0.8
2018-Jun-20 02:25N 35°37' E 139°50'2 3.5
2018-Jun-20 01:49N 35°36' E 139°51'0 0.0
2018-Jun-19 07:36N 35°36' E 139°52'7 1.7
2018-Jun-19 03:19N 35°31' E 139°59'5 1.9
2018-Jun-19 00:58N 35°33' E 139°54'5 1.8
2018-Jun-18 22:09N 35°37' E 139°50'0 0.6
2018-Jun-18 21:56N 35°37' E 139°50'2 0.1
2018-Jun-18 08:22N 35°36' E 139°51'8 1.8
2018-Jun-18 04:06N 35°31' E 139°59'0 0.5
2018-Jun-18 03:58N 35°31' E 139°59'0 0.0
2018-Jun-17 21:06N 35°31' E 139°59'411.1
2018-Jun-17 20:44N 35°30' E 139°55'412.8
2018-Jun-17 20:26N 35°27' E 139°51'612.9
2018-Jun-17 20:00N 35°23' E 139°46'612.4
2018-Jun-17 19:31N 35°17' E 139°45'712.8
2018-Jun-17 18:56N 35°10' E 139°47'  
2018-Jun-14 06:23N 35°08' E 139°45'512.3
2018-Jun-14 06:00N 35°12' E 139°46'510.9
2018-Jun-14 05:29N 35°18' E 139°45'611.5
2018-Jun-14 05:00N 35°23' E 139°42'611.5
2018-Jun-14 04:30N 35°27' E 139°47'5 0.6
2018-Jun-13 21:19N 35°28' E 139°53'512.2
2018-Jun-13 20:55N 35°25' E 139°48'512.0
2018-Jun-13 20:30N 35°21' E 139°45'611.3
2018-Jun-13 19:58N 35°15' E 139°47'  
Track history (hours):
 
Tides and Currents Weather Stations Pressure Air Temp Water Temp Dewpoint Dewpoint Depression Visibility Wind Speed Wind Dir Waves Ship Positions

Yamato Maru

Last reported at 2018-Jun-23 05:33 UTC. Time now 2018-Jun-24 18:48 UTC.
Position N 35°35' E 139°57'.

Length 72 m; draft 4.9 m.

Type: Ship. MMSI: 431000080.

Date/timePositionNaut miles runAvg speedWind from/ knotsBaromVisibWave heightAir tempDewpointWater temp
2018-Jun-23 05:33N 35°35' E 139°57'213.1
2018-Jun-23 05:25N 35°35' E 139°54'410.3
2018-Jun-23 05:00N 35°37' E 139°50'0 0.0
2018-Jun-23 02:39N 35°37' E 139°50'0 0.2
2018-Jun-23 02:30N 35°37' E 139°50'2 0.3
2018-Jun-22 17:22N 35°35' E 139°52'5 0.4
2018-Jun-22 02:57N 35°32' E 139°57'1 0.8
2018-Jun-22 01:19N 35°32' E 139°55'612.5
2018-Jun-22 00:52N 35°36' E 139°50'1 0.5
2018-Jun-21 22:13N 35°37' E 139°50'2 3.4
2018-Jun-21 21:43N 35°36' E 139°51'10 0.7
2018-Jun-21 06:53N 35°30' E 140°01'2 1.4
2018-Jun-21 05:36N 35°31' E 139°59'210.0
2018-Jun-21 05:24N 35°32' E 139°57'812.7
2018-Jun-21 04:47N 35°37' E 139°49'1 0.2
2018-Jun-21 02:19N 35°37' E 139°50'11 0.5
2018-Jun-20 06:10N 35°31' E 140°00'0 1.3
2018-Jun-20 06:00N 35°31' E 139°60'4 6.4
2018-Jun-20 05:25N 35°33' E 139°56'510.9
2018-Jun-20 04:58N 35°35' E 139°51'2 0.8
2018-Jun-20 02:25N 35°37' E 139°50'2 3.5
2018-Jun-20 01:49N 35°36' E 139°51'0 0.0
2018-Jun-19 07:36N 35°36' E 139°52'7 1.7
2018-Jun-19 03:19N 35°31' E 139°59'5 1.9
2018-Jun-19 00:58N 35°33' E 139°54'5 1.8
2018-Jun-18 22:09N 35°37' E 139°50'0 0.6
2018-Jun-18 21:56N 35°37' E 139°50'2 0.1
2018-Jun-18 08:22N 35°36' E 139°51'8 1.8
2018-Jun-18 04:06N 35°31' E 139°59'0 0.5
2018-Jun-18 03:58N 35°31' E 139°59'0 0.0
2018-Jun-17 21:06N 35°31' E 139°59'411.1
2018-Jun-17 20:44N 35°30' E 139°55'412.8
2018-Jun-17 20:26N 35°27' E 139°51'612.9
2018-Jun-17 20:00N 35°23' E 139°46'612.4
2018-Jun-17 19:31N 35°17' E 139°45'712.8
2018-Jun-17 18:56N 35°10' E 139°47'  
2018-Jun-14 06:23N 35°08' E 139°45'512.3
2018-Jun-14 06:00N 35°12' E 139°46'510.9
2018-Jun-14 05:29N 35°18' E 139°45'611.5
2018-Jun-14 05:00N 35°23' E 139°42'611.5
2018-Jun-14 04:30N 35°27' E 139°47'5 0.6
2018-Jun-13 21:19N 35°28' E 139°53'512.2
2018-Jun-13 20:55N 35°25' E 139°48'512.0
2018-Jun-13 20:30N 35°21' E 139°45'611.3
2018-Jun-13 19:58N 35°15' E 139°47'  

Dump ship's entire track history